Flight Track Log - Related Links

Times and Time Zones

All times are in EDT time to prevent confusion due to time zone crossing. See the CSN3233 flight status page for this flight to view local times or setup timezone preferences in your user account.

Time Position Orientation Groundspeed Altitude Reporting Facility
EDT Latitude Longitude Course Direction KTS MPH feet Rate Location/Type
Fri 08:55:00 AM 25.0096 110.4228 121° Southeast  Level Estimated
Fri 08:56:00 AM 24.9678 110.4994 121° Southeast  Level Estimated
Fri 08:57:00 AM 24.9259 110.5759 121° Southeast  Level Estimated
Fri 08:58:00 AM 24.8840 110.6524 121° Southeast  Level Estimated
Fri 08:59:00 AM 24.8421 110.7288 121° Southeast  Level Estimated
Fri 09:00:00 AM 24.8001 110.8052 121° Southeast  Level Estimated
Fri 09:01:00 AM 24.7581 110.8815 121° Southeast  Level Estimated
Fri 09:02:00 AM 24.7160 110.9577 121° Southeast  Level Estimated
Fri 09:03:00 AM 24.6739 111.0340 121° Southeast  Level Estimated
Fri 09:04:00 AM 24.6318 111.1101 121° Southeast  Level Estimated
Fri 09:05:00 AM 24.5896 111.1862 121° Southeast  Level Estimated
Fri 09:06:00 AM 24.5474 111.2623 121° Southeast  Level Estimated
Fri 09:07:00 AM 24.5051 111.3383 121° Southeast  Level Estimated
Fri 09:08:00 AM 24.4629 111.4142 121° Southeast  Level Estimated
Fri 09:09:00 AM 24.4205 111.4901 121° Southeast  Level Estimated
Fri 09:10:00 AM 24.3782 111.5660 122° Southeast  Level Estimated
Fri 09:11:00 AM 24.3358 111.6418 122° Southeast  Level Estimated
Fri 09:12:00 AM 24.2934 111.7175 122° Southeast  Level Estimated
Fri 09:13:00 AM 24.2509 111.7932 122° Southeast  Level Estimated
Fri 09:14:00 AM 24.2084 111.8689 122° Southeast  Level Estimated
Fri 09:15:00 AM 24.1658 111.9445 122° Southeast  Level Estimated
Fri 09:16:00 AM 24.1232 112.0200 122° Southeast  Level Estimated
Fri 09:17:00 AM 24.0806 112.0955 122° Southeast  Level Estimated
Fri 09:18:00 AM 24.0379 112.1709 122° Southeast  Level Estimated
Fri 09:19:00 AM 23.9953 112.2463 122° Southeast  Level Estimated
Fri 09:20:00 AM 23.9525 112.3217 122° Southeast  Level Estimated
Fri 09:21:00 AM 23.9097 112.3970 122° Southeast  Level Estimated
Fri 09:22:00 AM 23.8669 112.4722 122° Southeast  Level Estimated
Fri 09:23:00 AM 23.8241 112.5474 122° Southeast  Level Estimated
Fri 09:24:00 AM 23.7812 112.6226 122° Southeast  Level Estimated
Fri 09:25:00 AM 23.7383 112.6977 122° Southeast  Level Estimated
Fri 09:26:00 AM 23.6953 112.7727 122° Southeast  Level Estimated
Fri 09:27:00 AM 23.6523 112.8477 122° Southeast  Level Estimated
Fri 09:28:00 AM 23.6093 112.9227 122° Southeast  Level Estimated
Fri 09:29:00 AM 23.5663 112.9976 122° Southeast  Level Estimated
Fri 09:30:00 AM 23.5232 113.0724 122° Southeast  Level Estimated
Fri 09:31:00 AM 23.4800 113.1472 122° Southeast  Level Estimated
Fri 09:32:00 AM 23.4369 113.2220 122° Southeast  Level Estimated
Fri 09:33:00 AM 23.3937 113.2967 122° Southeast  Level Estimated
Fri 09:34:00 AM 23.3924 113.2988 122° Southeast  Level Estimated
Fri 09:35:00 AM 23.3924 113.2988 North  Level Estimated
Fri 09:36:00 AM 23.3924 113.2988 North  Level Estimated
Fri 09:37:00 AM 23.3924 113.2988 North  Level Estimated
Fri 09:38:00 AM 23.3924 113.2988 North  Level Estimated
Fri 09:39:00 AM 23.3924 113.2988 North  Level Estimated
Fri 09:40:00 AM 23.3924 113.2988 North  Level Estimated
Fri 09:41:00 AM 23.3924 113.2988 North  Level Estimated
Fri 09:42:00 AM 23.3924 113.2988 North  Level Estimated
Fri 09:43:00 AM 23.3924 113.2988 North  Level Estimated
Fri 09:44:00 AM 23.3924 113.2988 North  Level Estimated

Login

Don't have an account? Register now (free) for customized features, flight alerts, and more!